createdAt,value
2018-01-11T00:02:22.647Z,150.33
2018-01-11T00:04:50.507Z,218.43
2018-01-11T00:07:18.415Z,216.63
2018-01-11T00:09:46.275Z,128.10
2018-01-11T00:12:14.136Z,265.03
2018-01-11T00:14:42.027Z,184.53
2018-01-11T00:17:10.055Z,152.90
2018-01-11T00:19:38.184Z,126.43
2018-01-11T00:22:06.122Z,156.97
2018-01-11T00:24:34.030Z,148.27
2018-01-11T00:27:01.903Z,149.40
2018-01-11T00:29:29.799Z,140.07
2018-01-11T00:31:57.638Z,107.80
2018-01-11T00:34:25.533Z,111.90
2018-01-11T00:36:53.396Z,111.40
2018-01-11T00:39:21.253Z,111.23
2018-01-11T00:41:49.119Z,153.77
2018-01-11T00:44:17.192Z,99.40
2018-01-11T00:46:45.028Z,105.47
2018-01-11T00:49:12.945Z,140.90
2018-01-11T00:51:40.819Z,159.97
2018-01-11T00:54:08.692Z,123.03
2018-01-11T00:56:36.523Z,111.17
2018-01-11T00:59:04.395Z,121.27
2018-01-11T01:01:32.246Z,116.67
2018-01-11T01:04:00.081Z,289.97
2018-01-11T01:06:27.991Z,209.00
2018-01-11T01:08:55.822Z,167.93
2018-01-11T01:11:23.663Z,167.87
2018-01-11T01:13:51.767Z,156.43
2018-01-11T01:16:19.619Z,189.13
2018-01-11T01:18:47.460Z,195.63
2018-01-11T01:21:15.318Z,185.93
2018-01-11T01:23:43.181Z,178.30
2018-01-11T01:26:11.054Z,183.73
2018-01-11T01:28:38.929Z,165.67
2018-01-11T01:31:06.772Z,183.67
2018-01-11T01:33:34.663Z,160.70
2018-01-11T01:36:02.528Z,154.50
2018-01-11T01:38:30.394Z,270.33
2018-01-11T01:40:58.233Z,242.00
2018-01-11T01:43:26.136Z,165.50
2018-01-11T01:45:53.992Z,147.67
2018-01-11T01:48:27.832Z,124.93
2018-01-11T01:50:55.682Z,136.10
2018-01-11T01:53:23.539Z,133.20
2018-01-11T01:55:51.408Z,134.23
2018-01-11T01:58:19.236Z,134.47
2018-01-11T02:00:47.124Z,117.37
2018-01-11T02:03:15.009Z,140.70
2018-01-11T02:05:43.937Z,125.67
2018-01-11T02:08:11.841Z,115.23
2018-01-11T02:10:39.926Z,103.73
2018-01-11T02:13:07.796Z,99.23
2018-01-11T02:15:35.736Z,95.60
2018-01-11T02:18:03.628Z,87.43
2018-01-11T02:20:31.559Z,88.17
2018-01-11T02:22:59.415Z,93.10
2018-01-11T02:25:27.364Z,94.50
2018-01-11T02:27:55.259Z,93.30
2018-01-11T02:30:23.106Z,92.47
2018-01-11T02:32:50.976Z,102.77
2018-01-11T02:35:19.559Z,97.60
2018-01-11T02:37:47.398Z,91.93
2018-01-11T02:40:15.299Z,105.67
2018-01-11T02:42:43.148Z,93.50
2018-01-11T02:45:11.115Z,92.67
2018-01-11T02:47:38.979Z,89.63
2018-01-11T02:50:07.093Z,90.20
2018-01-11T02:52:35.138Z,95.27
2018-01-11T02:55:03.052Z,100.83
2018-01-11T02:57:30.899Z,91.27
2018-01-11T02:59:59.235Z,91.57
2018-01-11T03:02:27.108Z,82.57
2018-01-11T03:04:54.976Z,82.20
2018-01-11T03:07:23.493Z,74.23
2018-01-11T03:09:51.391Z,85.87
2018-01-11T03:12:19.237Z,77.23
2018-01-11T03:14:47.069Z,85.37
2018-01-11T03:17:15.017Z,76.10
2018-01-11T03:19:42.847Z,73.33
2018-01-11T03:22:10.733Z,72.67
2018-01-11T03:24:38.632Z,79.10
2018-01-11T03:27:06.501Z,73.80
2018-01-11T03:29:34.371Z,66.77
2018-01-11T03:32:02.299Z,73.10
2018-01-11T03:34:30.173Z,68.63
2018-01-11T03:36:58.061Z,72.40
2018-01-11T03:39:25.920Z,75.27
2018-01-11T03:41:53.752Z,74.50
2018-01-11T03:44:21.680Z,76.67
2018-01-11T03:46:49.545Z,66.80
2018-01-11T03:49:17.422Z,67.40
2018-01-11T03:51:45.271Z,70.27
2018-01-11T03:54:13.141Z,70.60
2018-01-11T03:56:40.983Z,67.83
2018-01-11T03:59:08.829Z,70.10
2018-01-11T04:01:36.732Z,66.17
2018-01-11T04:04:04.922Z,69.93
2018-01-11T04:06:32.794Z,69.97
2018-01-11T04:09:00.688Z,70.93
2018-01-11T04:11:28.564Z,68.60
2018-01-11T04:13:56.400Z,76.40
2018-01-11T04:16:24.293Z,70.30
2018-01-11T04:18:52.202Z,74.50
2018-01-11T04:21:20.033Z,74.67
2018-01-11T04:23:49.144Z,65.30
2018-01-11T04:26:16.985Z,74.77
2018-01-11T04:28:44.841Z,68.97
2018-01-11T04:31:12.696Z,65.63
2018-01-11T04:33:40.539Z,72.97
2018-01-11T04:36:08.417Z,70.73
2018-01-11T04:38:36.345Z,65.80
2018-01-11T04:41:04.175Z,69.13
2018-01-11T04:43:32.019Z,70.67
2018-01-11T04:45:59.965Z,70.53
2018-01-11T04:48:27.809Z,68.50
2018-01-11T04:50:55.664Z,72.40
2018-01-11T04:53:23.589Z,74.47
2018-01-11T04:55:51.421Z,71.60
2018-01-11T04:58:19.265Z,71.43
2018-01-11T05:00:51.080Z,76.20
2018-01-11T05:03:18.955Z,82.53
2018-01-11T05:05:46.808Z,74.97
2018-01-11T05:08:14.698Z,82.60
2018-01-11T05:10:42.532Z,88.53
2018-01-11T05:13:10.400Z,94.47
2018-01-11T05:15:38.277Z,84.33
2018-01-11T05:18:06.152Z,87.10
2018-01-11T05:20:33.987Z,85.37
2018-01-11T05:23:01.889Z,97.63
2018-01-11T05:25:29.731Z,94.47
2018-01-11T05:27:57.564Z,104.20
2018-01-11T05:30:26.268Z,105.27
2018-01-11T05:32:54.119Z,103.20
2018-01-11T05:35:21.974Z,102.83
2018-01-11T05:37:49.840Z,109.83
2018-01-11T05:40:17.704Z,121.13
2018-01-11T05:42:45.544Z,122.80
2018-01-11T05:45:13.524Z,109.53
2018-01-11T05:47:41.364Z,124.43
2018-01-11T05:50:09.224Z,126.43
2018-01-11T05:52:37.104Z,122.93
2018-01-11T05:55:04.976Z,123.43
2018-01-11T05:57:32.840Z,109.87
2018-01-11T06:00:00.698Z,114.77
2018-01-11T06:02:28.561Z,109.17
2018-01-11T06:04:56.419Z,105.07
2018-01-11T06:07:24.271Z,106.93
2018-01-11T06:09:52.111Z,116.13
2018-01-11T06:12:20.833Z,122.60
2018-01-11T06:14:48.746Z,113.60
2018-01-11T06:17:16.593Z,119.00
2018-01-11T06:19:44.465Z,117.03
2018-01-11T06:22:12.426Z,114.47
2018-01-11T06:24:40.289Z,122.40
2018-01-11T06:27:08.180Z,123.80
2018-01-11T06:29:36.064Z,128.20
2018-01-11T06:32:04.017Z,123.70
2018-01-11T06:34:31.897Z,121.50
2018-01-11T06:37:00.437Z,119.47
2018-01-11T06:39:28.362Z,134.80
2018-01-11T06:41:56.180Z,121.40
2018-01-11T06:44:24.044Z,118.53
2018-01-11T06:46:51.921Z,111.00
2018-01-11T06:49:19.768Z,125.63
2018-01-11T06:51:47.668Z,122.80
2018-01-11T06:54:15.528Z,149.33
2018-01-11T06:56:43.371Z,125.20
2018-01-11T06:59:12.461Z,128.77
2018-01-11T07:01:40.942Z,125.73
2018-01-11T07:04:09.281Z,137.90
2018-01-11T07:06:37.573Z,143.83
2018-01-11T07:09:05.507Z,125.60
2018-01-11T07:11:33.383Z,135.67
2018-01-11T07:14:01.852Z,122.03
2018-01-11T07:16:29.830Z,121.37
2018-01-11T07:18:57.718Z,124.80
2018-01-11T07:21:25.600Z,133.43
2018-01-11T07:23:53.663Z,121.27
2018-01-11T07:26:21.532Z,111.50
2018-01-11T07:28:49.392Z,130.53
2018-01-11T07:31:17.243Z,116.60
2018-01-11T07:33:45.089Z,112.20
2018-01-11T07:36:12.948Z,110.87
2018-01-11T07:38:40.797Z,114.33
2018-01-11T07:41:09.587Z,118.70
2018-01-11T07:43:37.565Z,117.63
2018-01-11T07:46:05.500Z,127.83
2018-01-11T07:48:34.196Z,129.60
2018-01-11T07:51:02.222Z,123.67
2018-01-11T07:53:30.118Z,119.93
2018-01-11T07:55:57.964Z,133.53
2018-01-11T07:58:25.876Z,139.73
2018-01-11T08:00:53.867Z,127.77
2018-01-11T08:03:22.075Z,117.83
2018-01-11T08:05:50.049Z,130.23
2018-01-11T08:08:17.925Z,117.77
2018-01-11T08:10:45.826Z,132.50
2018-01-11T08:13:14.123Z,115.57
2018-01-11T08:15:42.028Z,126.67
2018-01-11T08:18:10.040Z,124.27
2018-01-11T08:20:37.994Z,119.60
2018-01-11T08:23:05.879Z,123.93
2018-01-11T08:25:33.764Z,127.33
2018-01-11T08:28:01.673Z,114.97
2018-01-11T08:30:30.238Z,127.40
2018-01-11T08:32:58.337Z,139.27
2018-01-11T08:35:26.233Z,126.93
2018-01-11T08:37:54.067Z,127.33
2018-01-11T08:40:21.936Z,121.83
2018-01-11T08:42:49.839Z,112.90
2018-01-11T08:45:17.698Z,113.97
2018-01-11T08:47:45.657Z,115.20
2018-01-11T08:50:13.810Z,109.57
2018-01-11T08:52:41.684Z,119.93
2018-01-11T08:55:09.548Z,116.87
2018-01-11T08:57:37.464Z,105.67
2018-01-11T09:00:05.444Z,115.20
2018-01-11T09:02:33.296Z,107.00
2018-01-11T09:05:01.172Z,108.77
2018-01-11T09:07:29.196Z,109.03
2018-01-11T09:09:57.088Z,109.43
2018-01-11T09:12:24.989Z,114.63
2018-01-11T09:14:53.052Z,116.60
2018-01-11T09:17:20.900Z,114.90
2018-01-11T09:19:48.855Z,117.77
2018-01-11T09:22:16.744Z,123.27
2018-01-11T09:24:44.812Z,124.47
2018-01-11T09:27:12.833Z,134.13
2018-01-11T09:29:40.731Z,135.63
2018-01-11T09:32:08.633Z,142.10
2018-01-11T09:34:36.658Z,134.90
2018-01-11T09:37:04.548Z,144.13
2018-01-11T09:39:32.521Z,144.63
2018-01-11T09:42:00.519Z,144.17
2018-01-11T09:44:28.402Z,163.63
2018-01-11T09:46:56.236Z,153.63
2018-01-11T09:49:24.151Z,141.20
2018-01-11T09:51:52.011Z,156.10
2018-01-11T09:54:20.356Z,172.20
2018-01-11T09:56:48.267Z,147.53
2018-01-11T09:59:16.102Z,149.17
2018-01-11T10:01:44.010Z,143.77
2018-01-11T10:04:11.888Z,140.80
2018-01-11T10:06:39.747Z,134.57
2018-01-11T10:09:07.630Z,141.53
2018-01-11T10:11:35.577Z,147.53
2018-01-11T10:14:03.436Z,130.03
2018-01-11T10:16:31.276Z,121.30
2018-01-11T10:18:59.168Z,127.30
2018-01-11T10:21:27.090Z,126.60
2018-01-11T10:23:54.944Z,117.50
2018-01-11T10:26:22.840Z,127.37
2018-01-11T10:28:50.762Z,133.80
2018-01-11T10:31:18.607Z,125.73
2018-01-11T10:33:46.485Z,115.47
2018-01-11T10:36:14.374Z,124.87
2018-01-11T10:38:42.240Z,129.57
2018-01-11T10:41:10.119Z,116.37
2018-01-11T10:43:38.020Z,104.50
2018-01-11T10:46:05.950Z,100.20
2018-01-11T10:48:34.357Z,106.30
2018-01-11T10:51:02.261Z,112.37
2018-01-11T10:53:30.125Z,106.70
2018-01-11T10:55:58.003Z,115.53
2018-01-11T10:58:26.689Z,111.17
2018-01-11T11:01:00.703Z,101.50
2018-01-11T11:03:28.563Z,104.83
2018-01-11T11:05:56.537Z,97.40
2018-01-11T11:08:24.484Z,103.13
2018-01-11T11:10:52.468Z,106.53
2018-01-11T11:13:20.345Z,108.60
2018-01-11T11:15:48.225Z,101.73
2018-01-11T11:18:16.092Z,100.77
2018-01-11T11:20:44.024Z,112.73
2018-01-11T11:23:11.963Z,105.13
2018-01-11T11:25:39.832Z,105.50
2018-01-11T11:28:07.704Z,109.87
2018-01-11T11:30:35.666Z,88.53
2018-01-11T11:33:03.587Z,118.10
2018-01-11T11:35:31.480Z,93.17
2018-01-11T11:37:59.340Z,96.27
2018-01-11T11:40:27.233Z,90.07
2018-01-11T11:42:55.077Z,91.30
2018-01-11T11:45:22.970Z,107.20
2018-01-11T11:47:50.828Z,94.43
2018-01-11T11:50:18.699Z,90.43
2018-01-11T11:52:47.495Z,83.63
2018-01-11T11:55:15.428Z,99.37
2018-01-11T11:57:43.325Z,92.57
2018-01-11T12:00:11.254Z,94.60
2018-01-11T12:02:39.130Z,100.03
2018-01-11T12:05:07.068Z,96.77
2018-01-11T12:07:34.968Z,85.90
2018-01-11T12:10:02.830Z,93.97
2018-01-11T12:12:30.815Z,83.70
2018-01-11T12:14:58.745Z,90.40
2018-01-11T12:17:26.585Z,88.97
2018-01-11T12:19:54.437Z,89.77
2018-01-11T12:22:22.370Z,90.03
2018-01-11T12:24:50.272Z,79.07
2018-01-11T12:27:18.105Z,84.63
2018-01-11T12:29:46.105Z,84.43
2018-01-11T12:32:13.897Z,85.00
2018-01-11T12:34:41.777Z,83.47
2018-01-11T12:37:09.662Z,79.00
2018-01-11T12:39:37.535Z,78.60
2018-01-11T12:42:06.252Z,82.60
2018-01-11T12:44:34.118Z,80.93
2018-01-11T12:47:01.948Z,92.70
2018-01-11T12:49:29.822Z,89.73
2018-01-11T12:51:57.714Z,84.63
2018-01-11T12:54:25.565Z,87.47
2018-01-11T12:56:53.401Z,91.43
2018-01-11T12:59:21.279Z,93.37
2018-01-11T13:01:49.129Z,98.37
2018-01-11T13:04:16.964Z,82.60
2018-01-11T13:06:45.182Z,90.37
2018-01-11T13:09:13.056Z,80.90
2018-01-11T13:11:40.938Z,75.63
2018-01-11T13:14:08.859Z,75.83
2018-01-11T13:16:36.877Z,70.37
2018-01-11T13:19:04.746Z,83.40
2018-01-11T13:21:32.612Z,82.50
2018-01-11T13:24:00.475Z,67.00
2018-01-11T13:26:28.362Z,67.50
2018-01-11T13:28:56.220Z,73.37
2018-01-11T13:31:24.058Z,70.50
2018-01-11T13:33:51.972Z,80.17
2018-01-11T13:36:19.808Z,69.03
2018-01-11T13:38:47.703Z,77.13
2018-01-11T13:41:16.127Z,85.57
2018-01-11T13:43:43.999Z,86.40
2018-01-11T13:46:11.930Z,84.73
2018-01-11T13:48:39.788Z,92.40
2018-01-11T13:51:07.699Z,85.63
2018-01-11T13:53:35.632Z,85.37
2018-01-11T13:56:03.530Z,80.00
2018-01-11T13:58:31.463Z,88.53
2018-01-11T14:00:59.320Z,84.40
2018-01-11T14:03:27.228Z,111.80
2018-01-11T14:05:55.187Z,101.90
2018-01-11T14:08:23.024Z,87.03
2018-01-11T14:10:50.875Z,80.17
2018-01-11T14:13:18.729Z,86.33
2018-01-11T14:15:46.605Z,84.83
2018-01-11T14:18:14.473Z,88.67
2018-01-11T14:20:47.156Z,86.90
2018-01-11T14:23:15.164Z,78.83
2018-01-11T14:25:43.007Z,80.20
2018-01-11T14:28:10.852Z,85.80
2018-01-11T14:30:38.824Z,73.07
2018-01-11T14:33:06.707Z,72.90
2018-01-11T14:35:34.668Z,71.00
2018-01-11T14:38:02.575Z,73.77
2018-01-11T14:40:30.421Z,64.10
2018-01-11T14:42:58.328Z,61.00
2018-01-11T14:45:26.200Z,70.30
2018-01-11T14:47:54.087Z,79.57
2018-01-11T14:50:21.919Z,83.67
2018-01-11T14:52:49.813Z,70.77
2018-01-11T14:55:17.643Z,75.10
2018-01-11T14:57:45.472Z,69.90
2018-01-11T15:00:13.675Z,74.07
2018-01-11T15:02:41.625Z,72.60
2018-01-11T15:05:09.522Z,75.77
2018-01-11T15:07:37.391Z,77.10
2018-01-11T15:10:05.256Z,75.60
2018-01-11T15:12:34.097Z,86.17
2018-01-11T15:15:02.005Z,93.17
2018-01-11T15:17:29.875Z,79.57
2018-01-11T15:19:57.741Z,76.00
2018-01-11T15:22:25.640Z,80.33
2018-01-11T15:24:54.480Z,71.77
2018-01-11T15:27:23.259Z,77.83
2018-01-11T15:29:51.148Z,73.17
2018-01-11T15:32:19.049Z,70.97
2018-01-11T15:34:47.047Z,57.87
2018-01-11T15:37:14.957Z,66.50
2018-01-11T15:39:42.804Z,76.13
2018-01-11T15:42:10.830Z,53.13
2018-01-11T15:44:38.723Z,54.73
2018-01-11T15:47:06.705Z,50.60
2018-01-11T15:49:34.608Z,57.13
2018-01-11T15:52:02.785Z,58.03
2018-01-11T15:54:30.621Z,60.13
2018-01-11T15:56:58.590Z,69.43
2018-01-11T15:59:26.470Z,66.00
2018-01-11T16:01:54.797Z,65.03
2018-01-11T16:04:22.829Z,73.60
2018-01-11T16:06:50.744Z,63.70
2018-01-11T16:09:18.603Z,65.80
2018-01-11T16:11:46.452Z,68.87
2018-01-11T16:14:15.174Z,81.30
2018-01-11T16:16:43.162Z,77.43
2018-01-11T16:19:11.025Z,83.03
2018-01-11T16:21:38.909Z,77.43
2018-01-11T16:24:07.613Z,76.50
2018-01-11T16:26:35.481Z,81.67
2018-01-11T16:29:03.348Z,76.37
2018-01-11T16:31:31.869Z,86.23
2018-01-11T16:34:00.507Z,79.40
2018-01-11T16:36:28.398Z,88.67
2018-01-11T16:38:56.241Z,81.83
2018-01-11T16:41:24.077Z,88.03
2018-01-11T16:43:51.942Z,83.23
2018-01-11T16:46:19.848Z,78.10
2018-01-11T16:48:47.760Z,82.17
2018-01-11T16:51:15.635Z,64.07
2018-01-11T16:53:43.480Z,67.50
2018-01-11T16:56:11.649Z,59.77
2018-01-11T16:58:40.324Z,60.67
2018-01-11T17:01:08.227Z,60.93
2018-01-11T17:03:36.215Z,71.37
2018-01-11T17:06:04.451Z,57.07
2018-01-11T17:08:32.384Z,75.07
2018-01-11T17:11:00.228Z,66.10
2018-01-11T17:13:28.167Z,72.20
2018-01-11T17:15:56.026Z,114.40
2018-01-11T17:18:23.880Z,83.13
2018-01-11T17:20:51.772Z,94.70
2018-01-11T17:23:19.632Z,75.40
2018-01-11T17:25:48.525Z,92.17
2018-01-11T17:28:16.412Z,87.97
2018-01-11T17:30:44.255Z,93.97
2018-01-11T17:33:12.152Z,71.90
2018-01-11T17:35:40.064Z,83.23
2018-01-11T17:38:08.086Z,79.90
2018-01-11T17:40:35.988Z,81.10
2018-01-11T17:43:04.876Z,84.63
2018-01-11T17:45:32.736Z,92.40
2018-01-11T17:48:00.572Z,106.63
2018-01-11T17:50:28.578Z,105.13
2018-01-11T17:52:57.292Z,103.77
2018-01-11T17:55:25.167Z,132.77
2018-01-11T17:57:53.087Z,127.50
2018-01-11T18:00:20.935Z,142.13
2018-01-11T18:02:48.771Z,122.30
2018-01-11T18:05:17.693Z,159.90
2018-01-11T18:07:46.204Z,144.73
2018-01-11T18:10:14.191Z,233.97
2018-01-11T18:12:42.110Z,205.60
2018-01-11T18:15:09.951Z,168.33
2018-01-11T18:17:37.792Z,164.37
2018-01-11T18:20:05.738Z,154.13
2018-01-11T18:22:33.624Z,150.07
2018-01-11T18:25:01.455Z,173.73
2018-01-11T18:27:29.346Z,169.10
2018-01-11T18:29:57.228Z,169.50
2018-01-11T18:32:25.067Z,151.47
2018-01-11T18:34:52.979Z,128.57
2018-01-11T18:37:21.219Z,121.43
2018-01-11T18:39:49.175Z,126.73
2018-01-11T18:42:17.084Z,142.97
2018-01-11T18:44:44.996Z,132.97
2018-01-11T18:47:12.849Z,133.97
2018-01-11T18:49:40.919Z,129.43
2018-01-11T18:52:09.046Z,136.63
2018-01-11T18:54:36.939Z,151.47
2018-01-11T18:57:06.818Z,144.27
2018-01-11T18:59:38.761Z,177.90
2018-01-11T19:02:09.105Z,129.70
2018-01-11T19:04:37.011Z,136.23
2018-01-11T19:07:04.902Z,145.53
2018-01-11T19:09:32.799Z,142.67
2018-01-11T19:12:00.912Z,128.33
2018-01-11T19:14:28.776Z,140.27
2018-01-11T19:16:56.813Z,137.97
2018-01-11T19:19:26.615Z,134.87
2018-01-11T19:21:56.586Z,142.13
2018-01-11T19:24:24.513Z,137.63
2018-01-11T19:26:52.353Z,154.60
2018-01-11T19:29:20.576Z,135.67
2018-01-11T19:31:48.457Z,138.53
2018-01-11T19:34:17.741Z,133.83
2018-01-11T19:36:45.780Z,136.07
2018-01-11T19:39:13.640Z,137.23
2018-01-11T19:41:41.814Z,141.80
2018-01-11T19:44:12.383Z,142.63
2018-01-11T19:46:41.895Z,136.17
2018-01-11T19:49:09.896Z,130.87
2018-01-11T19:51:37.822Z,138.00
2018-01-11T19:54:05.961Z,145.87
2018-01-11T19:56:33.838Z,162.40
2018-01-11T19:59:03.798Z,169.00
2018-01-11T20:01:31.791Z,147.93
2018-01-11T20:03:59.716Z,167.13
2018-01-11T20:06:27.632Z,153.17
2018-01-11T20:08:56.247Z,158.90
2018-01-11T20:11:24.369Z,149.20
2018-01-11T20:13:52.384Z,156.27
2018-01-11T20:16:20.373Z,156.10
2018-01-11T20:18:48.349Z,168.73
2018-01-11T20:21:18.245Z,156.83
2018-01-11T20:23:47.381Z,152.83
2018-01-11T20:26:15.932Z,156.40
2018-01-11T20:28:44.252Z,149.00
2018-01-11T20:31:13.276Z,136.60
2018-01-11T20:33:41.397Z,130.60
2018-01-11T20:36:09.555Z,137.00
2018-01-11T20:38:37.912Z,141.33
2018-01-11T20:41:06.184Z,156.70
2018-01-11T20:43:36.513Z,133.43
2018-01-11T20:46:04.962Z,140.20
2018-01-11T20:48:33.137Z,140.03
2018-01-11T20:51:01.532Z,152.03
2018-01-11T20:53:29.437Z,143.83
2018-01-11T20:55:57.708Z,165.17
2018-01-11T20:58:25.657Z,139.97
2018-01-11T21:00:53.630Z,150.47
2018-01-11T21:03:21.592Z,155.93
2018-01-11T21:05:49.649Z,152.10
2018-01-11T21:08:18.625Z,161.70
2018-01-11T21:10:46.840Z,146.23
2018-01-11T21:13:14.847Z,168.60
2018-01-11T21:15:42.912Z,172.23
2018-01-11T21:18:13.741Z,166.17
2018-01-11T21:20:43.713Z,175.27
2018-01-11T21:23:11.882Z,208.67
2018-01-11T21:25:39.945Z,201.03
2018-01-11T21:28:08.277Z,212.33
2018-01-11T21:30:36.273Z,205.40
2018-01-11T21:33:04.565Z,205.00
2018-01-11T21:35:32.460Z,202.87
2018-01-11T21:38:00.646Z,189.67
2018-01-11T21:40:33.939Z,185.07
2018-01-11T21:43:02.002Z,192.67
2018-01-11T21:45:30.095Z,178.77
2018-01-11T21:47:58.271Z,188.83
2018-01-11T21:50:26.259Z,201.87
2018-01-11T21:52:54.325Z,175.73
2018-01-11T21:55:22.254Z,158.33
2018-01-11T21:57:50.138Z,163.00
2018-01-11T22:00:18.286Z,180.70
2018-01-11T22:02:46.138Z,163.17
2018-01-11T22:05:14.090Z,165.43
2018-01-11T22:07:42.065Z,169.37
2018-01-11T22:10:10.018Z,161.27
2018-01-11T22:12:37.932Z,187.10
2018-01-11T22:15:05.877Z,185.53
2018-01-11T22:17:33.752Z,192.33
2018-01-11T22:20:01.645Z,176.27
2018-01-11T22:22:29.696Z,181.63
2018-01-11T22:24:57.660Z,186.13
2018-01-11T22:27:25.943Z,190.40
2018-01-11T22:29:54.146Z,220.23
2018-01-11T22:32:22.414Z,208.67
2018-01-11T22:34:50.666Z,227.30
2018-01-11T22:37:21.097Z,234.47
2018-01-11T22:39:49.338Z,247.67
2018-01-11T22:42:17.882Z,227.47
2018-01-11T22:44:45.777Z,221.30
2018-01-11T22:47:13.807Z,209.47
2018-01-11T22:49:41.859Z,209.00
2018-01-11T22:52:09.899Z,177.30
2018-01-11T22:54:37.764Z,188.73
2018-01-11T22:57:05.704Z,197.77
2018-01-11T22:59:33.562Z,198.50
2018-01-11T23:02:01.402Z,181.53
2018-01-11T23:04:29.511Z,177.90
2018-01-11T23:06:57.360Z,175.30
2018-01-11T23:09:25.285Z,176.53
2018-01-11T23:11:53.386Z,179.77
2018-01-11T23:14:21.240Z,173.43
2018-01-11T23:16:49.100Z,197.40
2018-01-11T23:19:17.143Z,180.40
2018-01-11T23:21:44.991Z,193.13
2018-01-11T23:24:12.840Z,174.27
2018-01-11T23:26:40.745Z,202.17
2018-01-11T23:29:09.212Z,186.40
2018-01-11T23:31:37.128Z,173.63
2018-01-11T23:34:05.049Z,171.47
2018-01-11T23:36:33.088Z,184.67
2018-01-11T23:39:01.075Z,190.27
2018-01-11T23:41:29.972Z,192.20
2018-01-11T23:43:57.812Z,181.40
2018-01-11T23:46:25.787Z,178.60
2018-01-11T23:48:53.860Z,181.87
2018-01-11T23:51:21.776Z,192.17
2018-01-11T23:53:49.714Z,203.63
2018-01-11T23:56:17.580Z,180.33
2018-01-11T23:58:45.472Z,189.47
